Аэропорт
Пхукет (VTSP)

 VTSP / HKT

Thailand
TH-83
Пхукет
 8.11320, 98.31690  / 82 ft

 VTSP 182330Z 24008KT 200V270 9000 -RA BR SCT020 BKN100 26/23 Q1005 TEMPO 26015G25KT
 TAF VTSP 181700Z 1818/1924 28014KT 9999 SCT020 BKN100 TEMPO 1904/1910 28020G35KT 5000 RA FEW018 SCT020 BKN100 TEMPO 1918/1924 28020G35KT 5000 RA FEW018 SCT020 BKN100

2020 © VATRUS division (Privacy Policy)